Time;durP1;ratioP1;P1;durP2;ratioP2;P2;SDS_P1;SDS_P2;PMS_P1;PMS_P2;Temp;Humidity;BMP_temperature;BMP_pressure;BME280_temperature;BME280_humidity;BME280_pressure;Samples;Min_cycle;Max_cycle;Signal;HPM_P1;HPM_P2
2020/12/11 03:47:40;;;;;;;539.05;87.50;;;6.30;84.90;;;;;;4961634;23;20047;-86
2020/12/11 03:50:05;;;;;;;417.23;81.45;;;6.40;84.90;;;;;;4958688;28;20023;-86
2020/12/11 03:52:32;;;;;;;504.98;94.30;;;6.40;84.90;;;;;;4956506;29;20047;-85
2020/12/11 03:54:57;;;;;;;386.43;82.27;;;6.50;84.80;;;;;;4965158;29;20223;-86
2020/12/11 03:57:23;;;;;;;436.00;85.18;;;6.50;84.50;;;;;;4941414;29;20030;-86
2020/12/11 03:59:49;;;;;;;504.17;94.50;;;6.60;84.50;;;;;;4957069;29;20326;-86
2020/12/11 04:02:15;;;;;;;340.38;73.32;;;6.50;84.30;;;;;;4938534;29;20107;-86
2020/12/11 04:04:44;;;;;;;360.27;76.18;;;6.50;84.40;;;;;;4936398;29;20031;-86
2020/12/11 04:07:10;;;;;;;376.40;77.10;;;6.60;84.40;;;;;;4937009;29;20019;-85
2020/12/11 04:09:36;;;;;;;444.65;85.78;;;6.60;84.10;;;;;;4936731;29;20019;-85
2020/12/11 04:12:02;;;;;;;386.83;79.85;;;6.60;84.20;;;;;;4936492;29;20035;-86
2020/12/11 04:14:28;;;;;;;355.17;79.70;;;6.60;84.20;;;;;;4936641;29;20020;-86
2020/12/11 04:16:54;;;;;;;475.02;82.97;;;6.60;84.30;;;;;;4936612;29;20048;-86
2020/12/11 04:19:19;;;;;;;386.80;81.25;;;6.60;84.50;;;;;;4937952;29;20328;-86
2020/12/11 04:21:52;;;;;;;306.58;73.82;;;6.60;83.90;;;;;;4955565;29;20066;-86
2020/12/11 04:24:20;;;;;;;373.58;76.53;;;6.60;84.40;;;;;;4955105;29;20035;-86
2020/12/11 04:26:46;;;;;;;310.83;73.35;;;6.60;84.20;;;;;;4971526;29;20056;-86
2020/12/11 04:29:12;;;;;;;335.30;73.78;;;6.70;84.30;;;;;;4955002;28;20222;-86
2020/12/11 04:31:38;;;;;;;332.63;75.85;;;6.70;84.30;;;;;;4971157;29;20023;-87
2020/12/11 04:34:04;;;;;;;305.13;74.18;;;6.70;84.20;;;;;;4954257;29;20099;-86
2020/12/11 04:36:30;;;;;;;281.10;70.43;;;6.70;84.30;;;;;;4971152;29;20385;-86
2020/12/11 04:38:56;;;;;;;287.52;70.22;;;6.70;84.00;;;;;;4953700;29;20030;-86
2020/12/11 04:41:26;;;;;;;203.30;61.22;;;6.70;84.00;;;;;;4953566;29;20027;-86
2020/12/11 04:43:54;;;;;;;267.88;70.85;;;6.80;84.00;;;;;;4953631;29;20241;-86
2020/12/11 04:46:20;;;;;;;258.45;65.45;;;6.80;84.00;;;;;;4953375;29;20063;-86
2020/12/11 04:48:45;;;;;;;273.95;70.72;;;6.80;84.10;;;;;;4953076;29;20038;-86
2020/12/11 04:51:11;;;;;;;272.17;71.65;;;6.70;84.00;;;;;;4937175;29;20026;-86
2020/12/11 04:53:37;;;;;;;320.25;73.63;;;6.80;84.10;;;;;;4934531;29;20309;-85
2020/12/11 04:56:05;;;;;;;258.55;71.18;;;6.80;84.10;;;;;;4935304;29;20116;-86
2020/12/11 04:58:32;;;;;;;233.70;64.38;;;6.80;84.20;;;;;;4935032;29;20036;-86
2020/12/11 05:01:04;;;;;;;203.80;61.65;;;6.90;84.30;;;;;;4936133;29;20081;-85
2020/12/11 05:03:32;;;;;;;240.65;63.13;;;6.90;84.10;;;;;;4936006;29;20035;-86
2020/12/11 05:05:58;;;;;;;231.50;64.15;;;6.90;84.00;;;;;;4936044;29;20048;-85
2020/12/11 05:08:24;;;;;;;223.85;64.55;;;6.90;83.80;;;;;;4952947;29;20043;-86
2020/12/11 05:10:50;;;;;;;207.82;61.40;;;6.90;84.00;;;;;;4936237;29;20047;-85
2020/12/11 05:13:24;;;;;;;225.85;63.17;;;6.90;84.10;;;;;;4952316;29;20030;-85
2020/12/11 05:16:10;;;;;;;218.65;59.47;;;6.90;84.20;;;;;;4935315;29;20026;-86
2020/12/11 05:18:36;;;;;;;222.20;58.50;;;6.90;84.30;;;;;;4936174;29;20034;-86
2020/12/11 05:21:26;;;;;;;177.53;53.00;;;6.90;84.50;;;;;;4935397;29;20275;-86
2020/12/11 05:24:04;;;;;;;134.45;46.50;;;7.00;84.70;;;;;;4935946;29;20028;-86
2020/12/11 05:26:34;;;;;;;122.07;43.40;;;7.00;85.00;;;;;;4935816;29;20047;-85
2020/12/11 05:29:01;;;;;;;99.90;41.00;;;7.00;85.20;;;;;;4935666;29;20039;-85
2020/12/11 05:31:27;;;;;;;87.15;38.45;;;7.00;85.40;;;;;;4951346;29;20027;-85
2020/12/11 05:34:12;;;;;;;84.75;39.05;;;7.00;86.00;;;;;;4935601;29;20027;-84
2020/12/11 05:36:49;;;;;;;80.05;37.33;;;6.90;86.70;;;;;;4965968;29;20030;-85
2020/12/11 05:39:30;;;;;;;75.28;36.55;;;7.00;86.50;;;;;;4970649;29;20087;-85
2020/12/11 05:41:56;;;;;;;82.38;38.70;;;7.00;86.50;;;;;;4952867;29;20034;-84
2020/12/11 05:44:32;;;;;;;79.72;37.22;;;7.00;86.60;;;;;;4953294;29;20023;-85
2020/12/11 05:47:16;;;;;;;79.38;39.63;;;7.00;86.70;;;;;;4953156;29;20055;-85
2020/12/11 05:49:42;;;;;;;64.43;33.90;;;7.10;86.80;;;;;;4970097;29;20019;-85
2020/12/11 05:52:16;;;;;;;67.93;34.63;;;7.10;86.60;;;;;;4952783;29;20180;-85
2020/12/11 05:54:43;;;;;;;75.82;36.08;;;7.10;86.70;;;;;;4944240;29;20050;-83
2020/12/11 05:57:09;;;;;;;59.28;33.42;;;7.20;86.50;;;;;;4961465;29;20027;-83
2020/12/11 05:59:36;;;;;;;69.60;35.30;;;7.10;86.40;;;;;;4942946;29;20024;-84
2020/12/11 06:02:02;;;;;;;64.65;34.38;;;7.20;86.50;;;;;;4946810;28;20051;-85
2020/12/11 06:04:29;;;;;;;63.13;34.13;;;7.10;86.60;;;;;;4941273;29;20040;-84
2020/12/11 06:06:59;;;;;;;58.77;31.57;;;7.20;86.60;;;;;;4943074;29;20019;-83
2020/12/11 06:09:32;;;;;;;61.33;32.17;;;7.10;86.30;;;;;;4961250;29;20011;-85
2020/12/11 06:11:59;;;;;;;55.42;31.20;;;6.90;87.00;;;;;;4940620;29;20090;-84
2020/12/11 06:14:52;;;;;;;63.33;32.83;;;7.10;86.50;;;;;;4961555;29;20302;-84
2020/12/11 06:17:22;;;;;;;53.63;29.95;;;7.10;86.50;;;;;;4942687;29;20071;-85
2020/12/11 06:19:49;;;;;;;54.63;30.85;;;7.10;86.00;;;;;;4965732;29;20021;-84
2020/12/11 06:22:15;;;;;;;50.90;29.88;;;7.10;86.20;;;;;;4950949;29;20039;-85
2020/12/11 06:24:41;;;;;;;51.17;30.02;;;6.90;86.60;;;;;;4949021;29;20043;-84
2020/12/11 06:27:07;;;;;;;47.05;29.55;;;7.00;86.50;;;;;;4950087;29;20026;-84
2020/12/11 06:29:35;;;;;;;50.20;29.95;;;7.10;86.10;;;;;;4948345;29;20023;-84
2020/12/11 06:32:01;;;;;;;46.33;28.98;;;7.00;86.20;;;;;;4947916;29;20016;-84
2020/12/11 06:34:27;;;;;;;43.38;27.65;;;7.00;85.90;;;;;;4948037;29;20067;-84
2020/12/11 06:36:54;;;;;;;44.55;27.45;;;7.00;86.20;;;;;;4954792;29;20091;-85
2020/12/11 06:39:40;;;;;;;42.47;27.63;;;6.90;86.20;;;;;;4945934;29;20027;-84
2020/12/11 06:42:07;;;;;;;44.15;26.60;;;7.00;86.00;;;;;;4934551;29;20032;-84
2020/12/11 06:44:33;;;;;;;40.40;26.17;;;7.00;85.90;;;;;;4963063;29;20450;-83
2020/12/11 06:47:07;;;;;;;47.60;27.73;;;7.00;85.60;;;;;;4947168;29;20050;-84
2020/12/11 06:49:32;;;;;;;41.80;26.45;;;6.90;85.80;;;;;;4953967;29;20303;-84
2020/12/11 06:52:01;;;;;;;45.35;28.52;;;7.00;86.00;;;;;;4960110;29;20043;-84
2020/12/11 06:54:26;;;;;;;49.22;28.10;;;7.00;85.90;;;;;;4934573;29;20031;-84
2020/12/11 06:57:00;;;;;;;43.38;26.08;;;7.10;85.10;;;;;;4935459;29;20083;-85
2020/12/11 06:59:28;;;;;;;40.58;24.02;;;6.90;84.90;;;;;;4935147;29;20098;-84
2020/12/11 07:02:09;;;;;;;48.17;27.42;;;6.90;85.10;;;;;;4949047;29;20035;-84
2020/12/11 07:04:45;;;;;;;43.72;26.50;;;6.90;85.40;;;;;;4954191;29;20042;-85
2020/12/11 07:07:12;;;;;;;32.70;21.48;;;6.90;85.00;;;;;;4954201;29;20026;-84
2020/12/11 07:09:42;;;;;;;36.75;23.55;;;7.00;84.90;;;;;;4971478;29;20066;-85
2020/12/11 07:12:08;;;;;;;28.95;20.33;;;7.00;84.80;;;;;;4955073;29;20030;-85
2020/12/11 07:14:34;;;;;;;34.00;22.50;;;7.00;84.40;;;;;;4954791;29;20031;-85
2020/12/11 07:17:00;;;;;;;28.73;19.08;;;6.90;85.10;;;;;;4954484;29;20030;-84
2020/12/11 07:19:31;;;;;;;32.33;21.20;;;6.80;84.70;;;;;;4951354;29;20031;-84
2020/12/11 07:21:57;;;;;;;30.17;20.20;;;6.90;84.80;;;;;;4934788;29;20284;-85
2020/12/11 07:24:23;;;;;;;30.60;19.75;;;7.10;84.10;;;;;;4950522;29;20028;-84
2020/12/11 07:26:59;;;;;;;31.80;20.85;;;7.10;83.70;;;;;;4952391;29;20028;-84
2020/12/11 07:29:24;;;;;;;27.55;18.40;;;7.10;83.60;;;;;;4934776;29;20020;-84
2020/12/11 07:31:51;;;;;;;30.08;18.38;;;7.00;83.40;;;;;;4941212;29;20046;-83
2020/12/11 07:34:19;;;;;;;30.55;19.95;;;7.00;83.60;;;;;;4960269;29;20083;-85
2020/12/11 07:36:56;;;;;;;29.08;19.27;;;7.10;83.80;;;;;;4950833;29;20023;-84
2020/12/11 07:39:24;;;;;;;28.42;19.15;;;7.10;83.50;;;;;;4971466;29;20019;-85
2020/12/11 07:41:50;;;;;;;31.95;18.73;;;7.20;83.30;;;;;;4971083;29;20034;-84
2020/12/11 07:44:34;;;;;;;28.70;18.40;;;7.10;82.60;;;;;;4953887;29;20072;-84
2020/12/11 07:47:12;;;;;;;27.33;18.25;;;7.10;83.50;;;;;;4953757;29;20043;-85
2020/12/11 07:49:40;;;;;;;27.17;18.50;;;6.90;83.30;;;;;;4970621;29;20081;-84
2020/12/11 07:52:06;;;;;;;30.50;19.42;;;7.00;83.50;;;;;;4953680;29;20023;-84
2020/12/11 07:54:43;;;;;;;31.17;19.02;;;7.00;83.50;;;;;;4970756;29;20353;-84
2020/12/11 07:57:20;;;;;;;32.72;20.63;;;7.20;83.20;;;;;;4969916;29;20050;-83
2020/12/11 07:59:55;;;;;;;;;;;7.10;83.00;;;;;;4962288;29;20306;-84
2020/12/11 08:02:22;;;;;;;31.33;19.77;;;7.10;82.90;;;;;;4949093;29;19925;-84
2020/12/11 08:04:48;;;;;;;;;;;7.10;82.70;;;;;;4967557;28;20050;-85
2020/12/11 08:07:27;;;;;;;26.67;17.97;;;7.20;82.90;;;;;;4945319;29;19910;-84
2020/12/11 08:09:53;;;;;;;25.48;16.75;;;7.20;82.50;;;;;;4951191;29;20019;-84
2020/12/11 08:12:21;;;;;;;28.33;18.07;;;7.00;82.00;;;;;;4940581;29;20042;-84
2020/12/11 08:14:47;;;;;;;24.15;17.00;;;7.00;82.50;;;;;;4964355;29;20015;-84
2020/12/11 08:17:15;;;;;;;25.15;17.83;;;6.80;82.90;;;;;;4947354;29;20023;-84
2020/12/11 08:19:42;;;;;;;26.88;17.33;;;7.10;83.30;;;;;;4964882;29;20218;-83
2020/12/11 08:22:16;;;;;;;25.52;17.40;;;7.00;82.20;;;;;;4951244;29;20055;-84
2020/12/11 08:24:42;;;;;;;24.98;17.73;;;7.00;81.50;;;;;;4961257;29;20019;-84
2020/12/11 08:27:20;;;;;;;26.27;17.60;;;6.90;82.90;;;;;;4970890;29;20015;-85
2020/12/11 08:30:17;;;;;;;24.70;16.98;;;7.00;83.10;;;;;;4964673;29;20326;-84
2020/12/11 08:32:45;;;;;;;25.20;18.33;;;7.00;82.40;;;;;;4934129;29;20020;-85
2020/12/11 08:35:22;;;;;;;27.25;19.40;;;7.10;82.60;;;;;;4933492;29;20225;-84
2020/12/11 08:37:52;;;;;;;34.63;21.85;;;7.20;83.00;;;;;;4960631;29;20038;-84
2020/12/11 08:40:18;;;;;;;25.85;18.35;;;7.10;82.80;;;;;;4949333;29;20039;-84
2020/12/11 08:49:01;;;;;;;24.50;17.38;;;7.30;82.60;;;;;;4910284;29;20108;-84
2020/12/11 08:51:26;;;;;;;24.60;17.20;;;7.20;82.20;;;;;;4892637;29;20037;-84
2020/12/11 08:53:56;;;;;;;28.00;19.10;;;7.30;82.40;;;;;;4908163;29;20047;-85
2020/12/11 08:56:22;;;;;;;26.13;18.63;;;7.20;82.30;;;;;;4873116;29;20044;-84
2020/12/11 08:58:48;;;;;;;24.75;18.23;;;7.30;82.40;;;;;;4897397;29;20248;-84
2020/12/11 09:01:14;;;;;;;23.02;16.83;;;7.20;82.70;;;;;;4878327;29;20050;-84
2020/12/11 09:03:39;;;;;;;23.92;17.75;;;7.30;81.90;;;;;;4877394;29;20159;-84
2020/12/11 09:06:05;;;;;;;25.48;18.17;;;7.30;82.00;;;;;;4879782;29;20280;-84
2020/12/11 09:08:31;;;;;;;26.25;18.25;;;7.20;82.50;;;;;;4891604;29;20355;-84
2020/12/11 09:10:56;;;;;;;23.33;16.67;;;7.30;82.50;;;;;;4892540;29;20037;-84
2020/12/11 09:13:22;;;;;;;25.67;18.23;;;7.20;81.90;;;;;;4898395;29;20036;-84
2020/12/11 09:15:48;;;;;;;26.90;17.80;;;7.30;82.00;;;;;;4878921;29;20055;-84
2020/12/11 09:18:13;;;;;;;26.17;17.33;;;7.20;82.00;;;;;;4893975;29;20017;-84
2020/12/11 09:20:39;;;;;;;30.13;21.08;;;7.20;81.50;;;;;;4897210;29;20028;-84
2020/12/11 09:23:04;;;;;;;28.75;20.00;;;7.10;82.50;;;;;;4925646;29;20096;-83
2020/12/11 09:25:30;;;;;;;29.70;20.63;;;7.30;82.60;;;;;;4961719;29;20057;-83
2020/12/11 09:27:56;;;;;;;31.02;21.05;;;7.20;82.60;;;;;;4945404;29;20016;-82
2020/12/11 09:30:26;;;;;;;28.65;19.33;;;7.10;83.10;;;;;;4961912;29;20113;-82
2020/12/11 09:35:18;;;;;;;31.73;22.13;;;7.30;82.70;;;;;;4958869;29;20019;-82
2020/12/11 09:37:49;;;;;;;34.88;23.77;;;7.30;82.40;;;;;;4954490;29;20030;-81
2020/12/11 09:40:19;;;;;;;39.55;23.83;;;7.30;82.50;;;;;;4960810;29;20019;-82
2020/12/11 09:47:56;;;;;;;36.60;24.27;;;7.30;83.00;;;;;;4954116;29;20278;-83
2020/12/11 09:50:32;;;;;;;33.88;22.63;;;7.30;82.50;;;;;;4955145;29;20050;-83
2020/12/11 09:55:45;;;;;;;39.20;24.48;;;7.30;82.70;;;;;;4958754;29;20095;-83
2020/12/11 09:58:11;;;;;;;37.45;23.40;;;7.40;83.00;;;;;;4955991;29;20071;-81
2020/12/11 10:00:40;;;;;;;35.47;22.73;;;7.50;83.10;;;;;;4940298;29;20015;-82
2020/12/11 10:03:09;;;;;;;35.05;23.50;;;7.40;82.50;;;;;;4939748;29;20015;-82
2020/12/11 10:05:35;;;;;;;44.13;25.73;;;7.40;83.00;;;;;;4952352;29;20016;-82
2020/12/11 10:08:00;;;;;;;37.72;24.23;;;7.40;83.10;;;;;;4953120;29;20034;-83
2020/12/11 10:10:26;;;;;;;38.00;22.30;;;7.40;82.10;;;;;;4936439;29;20054;-82
2020/12/11 10:12:52;;;;;;;34.25;22.75;;;7.40;81.60;;;;;;4938372;29;20035;-82
2020/12/11 10:15:22;;;;;;;37.75;22.80;;;7.40;82.10;;;;;;4956747;29;20330;-82
2020/12/11 10:17:49;;;;;;;34.03;20.92;;;7.40;82.20;;;;;;4938405;29;20083;-82
2020/12/11 10:20:18;;;;;;;33.40;21.30;;;7.50;80.80;;;;;;4938645;29;20051;-82
2020/12/11 10:22:48;;;;;;;30.88;20.05;;;7.30;81.10;;;;;;4943444;29;20672;-82
2020/12/11 10:25:15;;;;;;;33.40;19.98;;;7.40;81.50;;;;;;4938206;29;20034;-81
2020/12/11 10:27:41;;;;;;;28.48;19.02;;;7.30;81.40;;;;;;4952930;29;20070;-82
2020/12/11 10:30:06;;;;;;;28.25;19.58;;;7.30;81.40;;;;;;4956572;29;20345;-82
2020/12/11 10:32:32;;;;;;;26.77;17.45;;;7.30;81.90;;;;;;4959775;29;20015;-81
2020/12/11 10:34:58;;;;;;;29.65;19.80;;;7.30;81.00;;;;;;4944949;29;20027;-82
2020/12/11 10:37:23;;;;;;;27.00;17.65;;;7.30;81.50;;;;;;4939963;29;20099;-83
2020/12/11 10:39:50;;;;;;;29.25;18.30;;;7.40;81.50;;;;;;4960153;29;20019;-84
2020/12/11 10:42:15;;;;;;;26.52;17.25;;;7.40;81.10;;;;;;4963008;29;20031;-82
2020/12/11 10:44:41;;;;;;;28.92;18.83;;;7.20;81.00;;;;;;4941959;29;20062;-84
2020/12/11 10:47:08;;;;;;;27.35;17.20;;;7.50;81.50;;;;;;4946058;29;20333;-84
2020/12/11 10:49:33;;;;;;;28.95;16.88;;;7.30;81.40;;;;;;4958558;29;20046;-83
2020/12/11 10:51:59;;;;;;;29.90;17.80;;;7.30;82.10;;;;;;4956636;29;20115;-82
2020/12/11 10:54:27;;;;;;;27.70;16.80;;;7.30;82.00;;;;;;4945473;29;20031;-83
2020/12/11 10:56:53;;;;;;;25.55;17.25;;;7.30;81.70;;;;;;4957446;29;20039;-83
2020/12/11 10:59:19;;;;;;;26.50;17.27;;;7.30;81.50;;;;;;4961845;29;20051;-85
2020/12/11 11:01:45;;;;;;;25.50;16.75;;;7.30;82.50;;;;;;4958045;29;20191;-83
2020/12/11 11:04:10;;;;;;;27.80;15.95;;;7.40;81.60;;;;;;4956744;29;20027;-81
2020/12/11 11:06:40;;;;;;;22.17;15.35;;;7.30;81.20;;;;;;4941681;29;20070;-85
2020/12/11 11:11:41;;;;;;;25.13;15.60;;;7.50;81.80;;;;;;4961639;29;20018;-84
2020/12/11 11:16:56;;;;;;;26.40;16.60;;;7.70;81.00;;;;;;4957273;29;20038;-82
2020/12/11 11:19:30;;;;;;;23.00;14.80;;;7.70;80.20;;;;;;4957432;29;20028;-82
2020/12/11 11:27:22;;;;;;;24.05;15.07;;;7.70;79.70;;;;;;4962542;29;20026;-83
2020/12/11 11:29:48;;;;;;;27.05;15.10;;;7.70;79.80;;;;;;4941846;29;20070;-85
2020/12/11 11:32:13;;;;;;;24.40;15.23;;;7.80;79.70;;;;;;4959463;28;20035;-84
2020/12/11 11:34:39;;;;;;;29.02;17.10;;;7.60;80.40;;;;;;4937839;29;20039;-84
2020/12/11 11:37:05;;;;;;;24.58;15.68;;;7.50;80.50;;;;;;4956471;29;20041;-85
2020/12/11 11:39:30;;;;;;;29.23;17.52;;;7.40;80.90;;;;;;4939785;29;20034;-84
2020/12/11 11:41:57;;;;;;;31.85;18.42;;;7.60;81.10;;;;;;4959603;29;20066;-84
2020/12/11 11:46:52;;;;;;;33.10;19.03;;;7.70;80.70;;;;;;4955773;29;20338;-84
2020/12/11 11:49:27;;;;;;;31.45;19.13;;;7.70;80.60;;;;;;4960269;29;20107;-84
2020/12/11 11:52:14;;;;;;;25.88;17.83;;;7.60;81.10;;;;;;4940374;29;20372;-84
2020/12/11 11:54:39;;;;;;;30.10;19.05;;;7.70;81.00;;;;;;4939267;29;20442;-84
2020/12/11 11:57:05;;;;;;;32.67;18.45;;;7.80;80.70;;;;;;4955346;29;20030;-85
2020/12/11 11:59:30;;;;;;;32.13;18.27;;;7.90;80.60;;;;;;4965636;28;20028;-84
2020/12/11 12:01:56;;;;;;;34.17;19.20;;;8.00;80.10;;;;;;4942351;29;20305;-84
2020/12/11 12:04:22;;;;;;;26.88;18.25;;;7.90;80.10;;;;;;4953797;29;20023;-84
2020/12/11 12:06:48;;;;;;;37.08;19.77;;;8.10;80.20;;;;;;4940196;29;20031;-84
2020/12/11 12:09:14;;;;;;;31.60;18.80;;;8.10;79.80;;;;;;4950348;29;20059;-84
2020/12/11 12:11:40;;;;;;;33.88;19.25;;;7.80;79.50;;;;;;4943591;29;20078;-83
2020/12/11 12:14:06;;;;;;;30.58;19.42;;;7.80;80.30;;;;;;4937113;29;20031;-84
2020/12/11 12:16:33;;;;;;;33.88;17.45;;;7.90;80.10;;;;;;4940254;29;20117;-83
2020/12/11 12:19:25;;;;;;;29.48;19.15;;;7.90;79.90;;;;;;4909299;29;20107;-84
2020/12/11 12:29:29;;;;;;;29.83;18.38;;;8.00;79.80;;;;;;4913174;29;20118;-84
2020/12/11 12:31:59;;;;;;;28.38;17.63;;;8.00;79.30;;;;;;4928200;29;20300;-84
2020/12/11 12:45:05;;;;;;;27.48;17.73;;;8.00;79.80;;;;;;4910373;29;20424;-85
2020/12/11 12:47:30;;;;;;;24.75;16.27;;;8.00;79.60;;;;;;4909213;29;20140;-83
2020/12/11 12:49:56;;;;;;;26.63;16.35;;;7.90;79.40;;;;;;4914110;29;20027;-84
2020/12/11 12:52:22;;;;;;;27.55;16.30;;;7.80;79.20;;;;;;4961373;28;20028;-84
2020/12/11 12:54:47;;;;;;;28.67;16.63;;;7.80;79.60;;;;;;4936281;29;20035;-83
2020/12/11 12:57:20;;;;;;;24.30;15.73;;;7.70;80.00;;;;;;4950107;29;20031;-84
2020/12/11 13:07:31;;;;;;;25.50;15.35;;;7.60;79.50;;;;;;4967946;29;20115;-84
2020/12/11 13:09:56;;;;;;;27.88;15.35;;;7.50;80.50;;;;;;4939395;29;20027;-85
2020/12/11 13:12:22;;;;;;;25.85;15.45;;;7.60;80.20;;;;;;4940447;29;20023;-84
2020/12/11 13:14:48;;;;;;;28.13;14.70;;;7.50;80.70;;;;;;4948613;29;20019;-84
2020/12/11 13:17:14;;;;;;;24.60;15.15;;;7.70;80.00;;;;;;4967958;29;20027;-84
2020/12/11 13:19:40;;;;;;;22.50;14.27;;;7.80;79.90;;;;;;4949780;29;20027;-84
2020/12/11 13:27:35;;;;;;;25.45;15.13;;;7.80;79.50;;;;;;4967723;29;20112;-85
2020/12/11 13:30:00;;;;;;;23.83;15.07;;;7.80;79.40;;;;;;4969222;29;20030;-84
2020/12/11 13:32:30;;;;;;;26.65;15.05;;;7.70;79.80;;;;;;4950522;29;20023;-83
2020/12/11 13:34:56;;;;;;;23.25;13.98;;;7.70;79.70;;;;;;4967402;29;20022;-83
2020/12/11 13:37:22;;;;;;;33.25;15.75;;;7.80;79.70;;;;;;4967160;29;20015;-84
2020/12/11 13:39:47;;;;;;;27.48;14.88;;;7.80;79.30;;;;;;4967999;29;20098;-84
2020/12/11 13:42:13;;;;;;;21.88;13.73;;;7.80;79.50;;;;;;4946716;29;20063;-83
2020/12/11 13:44:39;;;;;;;25.08;13.30;;;7.60;79.60;;;;;;4949389;29;20131;-84
2020/12/11 13:47:05;;;;;;;27.10;13.77;;;7.60;79.60;;;;;;4948854;29;20278;-84
2020/12/11 13:49:31;;;;;;;24.88;14.60;;;7.40;80.10;;;;;;4965928;29;20038;-84
2020/12/11 13:51:57;;;;;;;22.73;14.98;;;7.50;80.50;;;;;;4947708;29;20057;-83
2020/12/11 13:54:23;;;;;;;26.17;15.57;;;7.60;80.00;;;;;;4950286;29;20047;-83
2020/12/11 13:56:49;;;;;;;26.42;14.95;;;7.60;79.70;;;;;;4950534;29;20105;-84
2020/12/11 13:59:16;;;;;;;22.90;14.10;;;7.70;79.50;;;;;;4950439;29;20019;-83
2020/12/11 14:01:46;;;;;;;23.20;14.15;;;7.50;80.30;;;;;;4949719;29;20023;-84
2020/12/11 14:04:12;;;;;;;24.58;14.20;;;7.60;79.90;;;;;;4949952;29;20031;-84
2020/12/11 14:06:38;;;;;;;26.03;15.07;;;7.70;79.60;;;;;;4950466;29;20026;-84
2020/12/11 14:09:03;;;;;;;28.25;16.38;;;7.80;79.30;;;;;;4950445;29;20055;-84
2020/12/11 14:11:29;;;;;;;28.23;16.30;;;7.80;79.20;;;;;;4937534;29;20356;-84
2020/12/11 14:13:56;;;;;;;34.47;18.63;;;7.60;79.50;;;;;;4937333;29;20347;-84
2020/12/11 14:19:06;;;;;;;30.50;16.67;;;7.60;80.30;;;;;;4959026;29;20016;-83
2020/12/11 14:23:58;;;;;;;30.05;17.48;;;7.50;80.90;;;;;;4960167;29;20032;-84
2020/12/11 14:26:24;;;;;;;30.85;17.50;;;7.50;80.60;;;;;;4945114;29;20015;-83
2020/12/11 14:28:49;;;;;;;26.70;15.18;;;7.50;80.90;;;;;;4960771;29;20119;-84
2020/12/11 14:31:15;;;;;;;23.80;14.65;;;7.60;80.60;;;;;;4953352;29;20051;-84
2020/12/11 14:33:41;;;;;;;25.38;15.13;;;7.50;80.50;;;;;;4940328;29;20190;-83
2020/12/11 14:36:07;;;;;;;29.35;16.70;;;7.50;80.80;;;;;;4941323;29;20030;-84
2020/12/11 14:39:00;;;;;;;32.00;15.85;;;7.40;81.30;;;;;;4941376;29;20027;-84
2020/12/11 14:41:22;;;;;;;29.63;17.23;;;7.20;81.20;;;;;;4961910;29;20049;-84
2020/12/11 14:43:48;;;;;;;27.17;16.33;;;7.30;81.80;;;;;;4955735;29;20035;-84
2020/12/11 14:46:20;;;;;;;28.25;17.05;;;7.20;82.00;;;;;;4941522;29;20107;-83
2020/12/11 14:48:47;;;;;;;28.90;16.33;;;7.10;82.30;;;;;;4933502;29;20374;-83
2020/12/11 14:51:13;;;;;;;28.85;16.85;;;7.30;82.30;;;;;;4960346;29;20031;-84
2020/12/11 14:53:39;;;;;;;31.83;17.40;;;7.20;81.80;;;;;;4939944;29;20051;-83
2020/12/11 14:56:05;;;;;;;28.67;17.10;;;7.30;81.70;;;;;;4958660;29;20242;-84
2020/12/11 14:58:31;;;;;;;31.20;18.25;;;7.40;81.80;;;;;;4942028;29;20020;-85
2020/12/11 15:00:57;;;;;;;31.08;17.52;;;7.50;81.70;;;;;;4938649;29;20012;-83
2020/12/11 15:03:22;;;;;;;34.28;18.20;;;7.50;80.80;;;;;;4954320;29;20027;-84
2020/12/11 15:05:48;;;;;;;30.90;18.20;;;7.50;81.40;;;;;;4937939;29;20027;-84
2020/12/11 15:08:13;;;;;;;29.00;16.40;;;7.60;81.20;;;;;;4937917;29;20062;-84
2020/12/11 15:10:39;;;;;;;29.38;17.98;;;7.50;80.90;;;;;;4933600;29;20315;-84
2020/12/11 15:13:05;;;;;;;29.67;17.30;;;7.50;81.60;;;;;;4937371;29;20031;-84
2020/12/11 15:15:30;;;;;;;27.42;17.00;;;7.60;80.60;;;;;;4948683;29;20066;-84
2020/12/11 15:17:56;;;;;;;33.97;18.88;;;7.50;81.20;;;;;;4956303;29;20022;-84
2020/12/11 15:20:22;;;;;;;34.08;18.60;;;7.60;81.30;;;;;;4938340;29;20015;-84
2020/12/11 15:22:50;;;;;;;35.25;19.45;;;7.50;81.40;;;;;;4944808;29;20086;-83
2020/12/11 15:25:16;;;;;;;30.65;17.50;;;7.50;81.50;;;;;;4961550;29;20022;-84
2020/12/11 15:27:42;;;;;;;31.63;17.37;;;7.60;81.00;;;;;;4961043;29;20023;-84
2020/12/11 15:30:08;;;;;;;33.90;18.08;;;7.40;81.80;;;;;;4942683;29;20034;-84
2020/12/11 15:32:33;;;;;;;35.00;19.67;;;7.40;81.70;;;;;;4959180;29;20100;-84
2020/12/11 15:34:59;;;;;;;32.53;20.05;;;7.20;82.70;;;;;;4965140;29;20079;-85
2020/12/11 15:37:25;;;;;;;38.38;18.90;;;7.40;82.30;;;;;;4949521;29;20106;-83
2020/12/11 15:39:50;;;;;;;33.15;18.35;;;7.40;81.70;;;;;;4950398;29;20011;-83
2020/12/11 15:42:16;;;;;;;39.55;19.65;;;7.30;82.00;;;;;;4965562;29;20309;-82
2020/12/11 15:44:42;;;;;;;32.30;18.80;;;7.40;82.10;;;;;;4945232;29;20027;-84
2020/12/11 15:47:07;;;;;;;33.97;20.05;;;7.40;82.00;;;;;;4941749;29;20051;-84
2020/12/11 15:49:33;;;;;;;33.45;19.63;;;7.40;82.10;;;;;;4939590;29;20032;-83
2020/12/11 15:51:59;;;;;;;32.95;17.42;;;7.40;81.60;;;;;;4942495;29;20028;-83
2020/12/11 15:54:25;;;;;;;34.75;18.35;;;7.20;82.10;;;;;;4944353;29;20043;-84
2020/12/11 15:56:52;;;;;;;32.85;18.02;;;7.30;82.40;;;;;;4933785;29;20079;-83
2020/12/11 15:59:17;;;;;;;58.08;30.42;;;7.20;82.50;;;;;;4937801;29;20072;-84
2020/12/11 16:01:43;;;;;;;68.93;31.85;;;7.20;82.60;;;;;;4940187;29;20031;-84
2020/12/11 16:04:09;;;;;;;58.78;29.38;;;7.30;82.50;;;;;;4940536;29;20059;-84
2020/12/11 16:06:37;;;;;;;40.75;21.52;;;7.30;82.30;;;;;;4935773;29;20094;-84
2020/12/11 16:09:04;;;;;;;45.30;24.52;;;7.30;82.50;;;;;;4939855;29;20032;-83
2020/12/11 16:11:30;;;;;;;40.17;19.77;;;7.30;82.50;;;;;;4938208;29;20024;-83
2020/12/11 16:13:57;;;;;;;38.28;18.38;;;7.40;81.90;;;;;;4937622;29;20031;-83
2020/12/11 16:16:23;;;;;;;33.63;20.75;;;7.30;82.10;;;;;;4952096;29;20019;-83
2020/12/11 16:18:49;;;;;;;34.05;19.65;;;7.30;82.10;;;;;;4946612;29;20043;-84
2020/12/11 16:21:14;;;;;;;35.50;19.77;;;7.30;82.10;;;;;;4936944;29;20169;-83
2020/12/11 16:23:40;;;;;;;32.45;18.65;;;7.20;82.80;;;;;;4942552;29;20020;-83
2020/12/11 16:26:06;;;;;;;37.60;19.83;;;7.10;83.30;;;;;;4944967;29;20056;-84
2020/12/11 16:28:32;;;;;;;33.65;19.48;;;7.10;83.30;;;;;;4943567;29;20030;-84
2020/12/11 16:30:58;;;;;;;34.28;18.92;;;7.00;83.40;;;;;;4949066;29;20039;-84
2020/12/11 16:33:25;;;;;;;35.35;19.27;;;7.00;83.60;;;;;;4948601;29;20019;-84
2020/12/11 16:35:54;;;;;;;41.55;19.65;;;7.10;83.40;;;;;;4938334;29;20016;-84
2020/12/11 16:38:20;;;;;;;38.70;19.52;;;7.10;83.50;;;;;;4928590;29;20020;-84
2020/12/11 16:40:46;;;;;;;31.45;17.92;;;7.10;83.70;;;;;;4931804;29;20322;-84
2020/12/11 16:43:29;;;;;;;35.58;20.55;;;7.00;83.50;;;;;;4931732;29;20051;-84
2020/12/11 16:46:01;;;;;;;38.00;20.23;;;7.30;83.10;;;;;;4944672;29;20020;-83
2020/12/11 16:48:28;;;;;;;33.88;18.48;;;7.30;82.70;;;;;;4947828;29;20071;-84
2020/12/11 16:50:54;;;;;;;32.35;18.95;;;7.10;82.80;;;;;;4946185;29;20027;-84
2020/12/11 16:53:20;;;;;;;34.45;18.70;;;7.10;83.20;;;;;;4942469;29;20087;-81
2020/12/11 16:55:45;;;;;;;41.08;22.35;;;7.10;83.40;;;;;;4948987;29;20039;-83
2020/12/11 16:58:11;;;;;;;33.10;19.25;;;7.30;83.10;;;;;;4941534;29;20055;-84
2020/12/11 17:00:37;;;;;;;36.40;21.58;;;7.10;83.70;;;;;;4942312;29;20036;-83
2020/12/11 17:08:36;;;;;;;37.22;20.17;;;7.10;82.90;;;;;;4938973;29;20034;-84
2020/12/11 17:11:01;;;;;;;33.53;18.02;;;7.10;83.20;;;;;;4946931;29;20075;-84
2020/12/11 17:13:27;;;;;;;33.53;18.45;;;7.20;82.80;;;;;;4941475;29;20515;-83
2020/12/11 17:15:53;;;;;;;36.35;18.42;;;7.00;83.00;;;;;;4946324;29;20039;-84
2020/12/11 17:18:19;;;;;;;36.50;19.30;;;7.10;83.10;;;;;;4943617;29;20071;-84
2020/12/11 17:20:46;;;;;;;34.90;19.50;;;7.20;82.90;;;;;;4947847;29;20031;-84
2020/12/11 17:23:15;;;;;;;36.67;20.55;;;7.20;82.50;;;;;;4933030;29;20027;-84
2020/12/11 17:25:41;;;;;;;37.28;19.33;;;7.20;82.40;;;;;;4944474;29;20215;-84
2020/12/11 17:28:08;;;;;;;33.17;19.77;;;7.10;83.20;;;;;;4938900;29;20103;-83
2020/12/11 17:30:47;;;;;;;37.50;20.05;;;6.90;83.30;;;;;;4942771;29;20106;-82
2020/12/11 17:33:23;;;;;;;33.22;18.27;;;7.00;83.20;;;;;;4937675;29;20027;-83
2020/12/11 17:35:48;;;;;;;36.30;19.10;;;6.90;83.30;;;;;;4943177;29;20050;-84
2020/12/11 17:38:14;;;;;;;34.17;19.23;;;7.00;83.50;;;;;;4929170;29;20215;-83